sensor_id;sensor_type;location;lat;lon;timestamp;temperature;humidity
41985;DHT22;28319;48.116;10.818;2023-07-08T00:01:32;20.70;76.80
41985;DHT22;28319;48.116;10.818;2023-07-08T00:06:36;20.60;78.00
41985;DHT22;28319;48.116;10.818;2023-07-08T00:11:39;20.50;77.40
41985;DHT22;28319;48.116;10.818;2023-07-08T00:16:43;20.70;77.30
41985;DHT22;28319;48.116;10.818;2023-07-08T00:21:47;20.60;77.00
41985;DHT22;28319;48.116;10.818;2023-07-08T00:26:50;20.60;77.30
41985;DHT22;28319;48.116;10.818;2023-07-08T00:31:52;20.50;78.40
41985;DHT22;28319;48.116;10.818;2023-07-08T00:36:56;20.50;77.90
41985;DHT22;28319;48.116;10.818;2023-07-08T00:42:00;20.40;78.10
41985;DHT22;28319;48.116;10.818;2023-07-08T00:47:07;20.40;78.30
41985;DHT22;28319;48.116;10.818;2023-07-08T00:52:25;20.40;79.40
41985;DHT22;28319;48.116;10.818;2023-07-08T00:57:31;20.10;81.30
41985;DHT22;28319;48.116;10.818;2023-07-08T01:02:36;19.90;82.40
41985;DHT22;28319;48.116;10.818;2023-07-08T01:07:44;19.50;84.60
41985;DHT22;28319;48.116;10.818;2023-07-08T01:12:51;19.40;84.60
41985;DHT22;28319;48.116;10.818;2023-07-08T01:17:55;19.30;84.70
41985;DHT22;28319;48.116;10.818;2023-07-08T01:22:59;19.30;83.50
41985;DHT22;28319;48.116;10.818;2023-07-08T01:28:03;19.10;86.50
41985;DHT22;28319;48.116;10.818;2023-07-08T01:33:12;19.10;85.00
41985;DHT22;28319;48.116;10.818;2023-07-08T01:38:22;19.20;85.50
41985;DHT22;28319;48.116;10.818;2023-07-08T01:43:27;19.10;84.90
41985;DHT22;28319;48.116;10.818;2023-07-08T01:48:33;19.10;84.90
41985;DHT22;28319;48.116;10.818;2023-07-08T01:53:39;19.10;84.70
41985;DHT22;28319;48.116;10.818;2023-07-08T01:58:42;19.20;84.20
41985;DHT22;28319;48.116;10.818;2023-07-08T02:03:44;19.10;85.20
41985;DHT22;28319;48.116;10.818;2023-07-08T02:08:50;19.00;85.30
41985;DHT22;28319;48.116;10.818;2023-07-08T02:13:53;19.00;84.70
41985;DHT22;28319;48.116;10.818;2023-07-08T02:18:55;19.00;84.40
41985;DHT22;28319;48.116;10.818;2023-07-08T02:23:59;18.90;84.80
41985;DHT22;28319;48.116;10.818;2023-07-08T02:29:02;18.80;86.10
41985;DHT22;28319;48.116;10.818;2023-07-08T02:34:04;18.80;85.50
41985;DHT22;28319;48.116;10.818;2023-07-08T02:39:08;18.80;85.60
41985;DHT22;28319;48.116;10.818;2023-07-08T02:44:12;18.60;87.70
41985;DHT22;28319;48.116;10.818;2023-07-08T02:49:14;18.40;87.30
41985;DHT22;28319;48.116;10.818;2023-07-08T02:54:18;18.20;87.90
41985;DHT22;28319;48.116;10.818;2023-07-08T02:59:20;18.20;87.50
41985;DHT22;28319;48.116;10.818;2023-07-08T03:04:22;18.10;89.00
41985;DHT22;28319;48.116;10.818;2023-07-08T03:09:27;18.20;88.00
41985;DHT22;28319;48.116;10.818;2023-07-08T03:14:29;18.30;88.20
41985;DHT22;28319;48.116;10.818;2023-07-08T03:19:31;18.30;87.90
41985;DHT22;28319;48.116;10.818;2023-07-08T03:24:35;18.40;88.70
41985;DHT22;28319;48.116;10.818;2023-07-08T03:29:37;18.50;88.50
41985;DHT22;28319;48.116;10.818;2023-07-08T03:34:39;18.50;89.60
41985;DHT22;28319;48.116;10.818;2023-07-08T03:39:43;18.60;87.90
41985;DHT22;28319;48.116;10.818;2023-07-08T03:44:45;18.30;90.40
41985;DHT22;28319;48.116;10.818;2023-07-08T03:49:47;17.70;91.30
41985;DHT22;28319;48.116;10.818;2023-07-08T03:54:51;17.40;92.40
41985;DHT22;28319;48.116;10.818;2023-07-08T03:59:53;17.70;92.00
41985;DHT22;28319;48.116;10.818;2023-07-08T04:04:56;17.60;93.50
41985;DHT22;28319;48.116;10.818;2023-07-08T04:09:59;17.40;93.00
41985;DHT22;28319;48.116;10.818;2023-07-08T04:15:01;17.80;92.20
41985;DHT22;28319;48.116;10.818;2023-07-08T04:20:05;18.00;91.90
41985;DHT22;28319;48.116;10.818;2023-07-08T04:25:10;18.20;91.70
41985;DHT22;28319;48.116;10.818;2023-07-08T04:30:21;17.80;93.50
41985;DHT22;28319;48.116;10.818;2023-07-08T04:35:23;17.50;93.60
41985;DHT22;28319;48.116;10.818;2023-07-08T04:40:27;17.90;93.60
41985;DHT22;28319;48.116;10.818;2023-07-08T04:45:29;17.90;92.40
41985;DHT22;28319;48.116;10.818;2023-07-08T04:50:33;17.90;93.40
41985;DHT22;28319;48.116;10.818;2023-07-08T04:55:39;17.70;93.20
41985;DHT22;28319;48.116;10.818;2023-07-08T05:00:42;17.70;95.40
41985;DHT22;28319;48.116;10.818;2023-07-08T05:05:44;17.70;94.50
41985;DHT22;28319;48.116;10.818;2023-07-08T05:10:48;18.10;93.50
41985;DHT22;28319;48.116;10.818;2023-07-08T05:15:50;18.20;94.10
41985;DHT22;28319;48.116;10.818;2023-07-08T05:20:53;18.30;93.90
41985;DHT22;28319;48.116;10.818;2023-07-08T05:25:59;18.40;93.60
41985;DHT22;28319;48.116;10.818;2023-07-08T05:31:03;18.60;92.70
41985;DHT22;28319;48.116;10.818;2023-07-08T05:36:05;18.80;92.80
41985;DHT22;28319;48.116;10.818;2023-07-08T05:41:09;18.80;93.10
41985;DHT22;28319;48.116;10.818;2023-07-08T05:46:13;18.90;92.50
41985;DHT22;28319;48.116;10.818;2023-07-08T05:51:20;19.00;92.50
41985;DHT22;28319;48.116;10.818;2023-07-08T05:56:31;18.90;92.70
41985;DHT22;28319;48.116;10.818;2023-07-08T06:01:33;18.90;93.20
41985;DHT22;28319;48.116;10.818;2023-07-08T06:06:35;19.10;93.00
41985;DHT22;28319;48.116;10.818;2023-07-08T06:11:41;19.20;93.10
41985;DHT22;28319;48.116;10.818;2023-07-08T06:16:45;19.20;92.30
41985;DHT22;28319;48.116;10.818;2023-07-08T06:21:47;19.40;92.10
41985;DHT22;28319;48.116;10.818;2023-07-08T06:26:51;19.70;91.70
41985;DHT22;28319;48.116;10.818;2023-07-08T06:31:54;19.80;91.60
41985;DHT22;28319;48.116;10.818;2023-07-08T06:36:56;19.80;93.10
41985;DHT22;28319;48.116;10.818;2023-07-08T06:41:59;19.90;92.80
41985;DHT22;28319;48.116;10.818;2023-07-08T06:47:04;20.00;93.60
41985;DHT22;28319;48.116;10.818;2023-07-08T06:52:07;20.20;93.30
41985;DHT22;28319;48.116;10.818;2023-07-08T06:57:10;20.40;93.50
41985;DHT22;28319;48.116;10.818;2023-07-08T07:02:13;20.50;94.10
41985;DHT22;28319;48.116;10.818;2023-07-08T07:07:17;20.40;94.60
41985;DHT22;28319;48.116;10.818;2023-07-08T07:12:23;20.50;94.80
41985;DHT22;28319;48.116;10.818;2023-07-08T07:17:25;20.60;94.80
41985;DHT22;28319;48.116;10.818;2023-07-08T07:22:27;20.70;94.40
41985;DHT22;28319;48.116;10.818;2023-07-08T07:27:31;20.80;94.80
41985;DHT22;28319;48.116;10.818;2023-07-08T07:32:33;20.80;95.60
41985;DHT22;28319;48.116;10.818;2023-07-08T07:37:35;21.00;95.20
41985;DHT22;28319;48.116;10.818;2023-07-08T07:42:40;21.10;94.60
41985;DHT22;28319;48.116;10.818;2023-07-08T07:47:42;21.20;94.70
41985;DHT22;28319;48.116;10.818;2023-07-08T07:52:45;21.30;94.00
41985;DHT22;28319;48.116;10.818;2023-07-08T07:57:48;21.50;93.30
41985;DHT22;28319;48.116;10.818;2023-07-08T08:02:51;21.60;93.60
41985;DHT22;28319;48.116;10.818;2023-07-08T08:07:53;21.80;92.40
41985;DHT22;28319;48.116;10.818;2023-07-08T08:12:57;22.00;92.80
41985;DHT22;28319;48.116;10.818;2023-07-08T08:18:00;22.20;92.20
41985;DHT22;28319;48.116;10.818;2023-07-08T08:23:02;22.30;92.40
41985;DHT22;28319;48.116;10.818;2023-07-08T08:28:06;22.40;92.70
41985;DHT22;28319;48.116;10.818;2023-07-08T08:33:08;22.50;92.60
41985;DHT22;28319;48.116;10.818;2023-07-08T08:38:10;22.70;92.20
41985;DHT22;28319;48.116;10.818;2023-07-08T08:43:17;22.90;92.10
41985;DHT22;28319;48.116;10.818;2023-07-08T08:48:20;23.10;92.20
41985;DHT22;28319;48.116;10.818;2023-07-08T08:53:23;23.30;92.10
41985;DHT22;28319;48.116;10.818;2023-07-08T08:58:37;23.30;92.20
41985;DHT22;28319;48.116;10.818;2023-07-08T09:03:47;23.60;91.40
41985;DHT22;28319;48.116;10.818;2023-07-08T09:08:50;23.70;91.60
41985;DHT22;28319;48.116;10.818;2023-07-08T09:14:00;24.00;91.70
41985;DHT22;28319;48.116;10.818;2023-07-08T09:19:07;24.30;91.20
41985;DHT22;28319;48.116;10.818;2023-07-08T09:24:16;24.50;91.10
41985;DHT22;28319;48.116;10.818;2023-07-08T09:29:22;24.70;90.00
41985;DHT22;28319;48.116;10.818;2023-07-08T09:34:36;25.00;90.40
41985;DHT22;28319;48.116;10.818;2023-07-08T09:39:39;25.20;89.30
41985;DHT22;28319;48.116;10.818;2023-07-08T09:44:44;25.40;88.20
41985;DHT22;28319;48.116;10.818;2023-07-08T09:49:47;25.60;86.10
41985;DHT22;28319;48.116;10.818;2023-07-08T09:54:49;26.10;86.40
41985;DHT22;28319;48.116;10.818;2023-07-08T09:59:57;26.30;83.80
41985;DHT22;28319;48.116;10.818;2023-07-08T10:05:10;26.40;81.30
41985;DHT22;28319;48.116;10.818;2023-07-08T10:10:28;26.80;78.80
41985;DHT22;28319;48.116;10.818;2023-07-08T10:15:42;26.90;77.60
41985;DHT22;28319;48.116;10.818;2023-07-08T10:20:55;27.50;79.70
41985;DHT22;28319;48.116;10.818;2023-07-08T10:26:06;27.70;74.70
41985;DHT22;28319;48.116;10.818;2023-07-08T10:31:24;27.50;75.40
41985;DHT22;28319;48.116;10.818;2023-07-08T10:36:42;27.50;75.00
41985;DHT22;28319;48.116;10.818;2023-07-08T10:41:54;27.40;75.10
41985;DHT22;28319;48.116;10.818;2023-07-08T10:47:08;27.40;76.10
41985;DHT22;28319;48.116;10.818;2023-07-08T10:52:37;28.00;74.20
41985;DHT22;28319;48.116;10.818;2023-07-08T11:03:36;28.60;74.50
41985;DHT22;28319;48.116;10.818;2023-07-08T11:08:45;28.90;71.40
41985;DHT22;28319;48.116;10.818;2023-07-08T11:13:50;29.20;70.40
41985;DHT22;28319;48.116;10.818;2023-07-08T11:18:59;29.40;72.20
41985;DHT22;28319;48.116;10.818;2023-07-08T11:24:18;29.50;72.10
41985;DHT22;28319;48.116;10.818;2023-07-08T11:29:34;29.60;71.60
41985;DHT22;28319;48.116;10.818;2023-07-08T11:34:44;29.60;70.50
41985;DHT22;28319;48.116;10.818;2023-07-08T11:39:54;29.50;71.20
41985;DHT22;28319;48.116;10.818;2023-07-08T11:44:58;30.10;71.10
41985;DHT22;28319;48.116;10.818;2023-07-08T11:50:03;29.90;71.50
41985;DHT22;28319;48.116;10.818;2023-07-08T11:55:14;30.20;71.80
41985;DHT22;28319;48.116;10.818;2023-07-08T12:00:23;29.40;72.70
41985;DHT22;28319;48.116;10.818;2023-07-08T12:05:32;29.40;72.80
41985;DHT22;28319;48.116;10.818;2023-07-08T12:10:39;28.90;72.40
41985;DHT22;28319;48.116;10.818;2023-07-08T12:15:41;29.00;70.00
41985;DHT22;28319;48.116;10.818;2023-07-08T12:20:47;29.40;67.90
41985;DHT22;28319;48.116;10.818;2023-07-08T12:25:51;29.50;70.20
41985;DHT22;28319;48.116;10.818;2023-07-08T12:30:53;30.10;69.20
41985;DHT22;28319;48.116;10.818;2023-07-08T12:36:02;29.20;68.60
41985;DHT22;28319;48.116;10.818;2023-07-08T12:41:09;29.80;68.20
41985;DHT22;28319;48.116;10.818;2023-07-08T12:46:13;30.40;67.80
41985;DHT22;28319;48.116;10.818;2023-07-08T12:51:19;30.60;68.00
41985;DHT22;28319;48.116;10.818;2023-07-08T12:56:23;30.90;67.80
41985;DHT22;28319;48.116;10.818;2023-07-08T13:01:28;31.50;68.00
41985;DHT22;28319;48.116;10.818;2023-07-08T13:06:34;31.10;65.90
41985;DHT22;28319;48.116;10.818;2023-07-08T13:11:37;30.40;66.30
41985;DHT22;28319;48.116;10.818;2023-07-08T13:16:39;30.40;66.80
41985;DHT22;28319;48.116;10.818;2023-07-08T13:21:44;30.10;66.80
41985;DHT22;28319;48.116;10.818;2023-07-08T13:26:48;30.50;66.70
41985;DHT22;28319;48.116;10.818;2023-07-08T13:31:56;30.50;66.20
41985;DHT22;28319;48.116;10.818;2023-07-08T13:37:00;30.90;65.70
41985;DHT22;28319;48.116;10.818;2023-07-08T13:42:02;30.90;67.00
41985;DHT22;28319;48.116;10.818;2023-07-08T13:47:20;31.30;66.30
41985;DHT22;28319;48.116;10.818;2023-07-08T13:52:23;30.50;64.40
41985;DHT22;28319;48.116;10.818;2023-07-08T13:57:32;31.80;64.80
41985;DHT22;28319;48.116;10.818;2023-07-08T14:02:39;32.20;65.20
41985;DHT22;28319;48.116;10.818;2023-07-08T14:07:44;31.70;64.00
41985;DHT22;28319;48.116;10.818;2023-07-08T14:12:46;31.80;64.50
41985;DHT22;28319;48.116;10.818;2023-07-08T14:17:48;31.30;65.30
41985;DHT22;28319;48.116;10.818;2023-07-08T14:22:55;30.80;65.70
41985;DHT22;28319;48.116;10.818;2023-07-08T14:27:57;30.40;65.30
41985;DHT22;28319;48.116;10.818;2023-07-08T14:32:59;30.80;64.20
41985;DHT22;28319;48.116;10.818;2023-07-08T14:38:04;31.50;64.60
41985;DHT22;28319;48.116;10.818;2023-07-08T14:43:12;31.30;63.10
41985;DHT22;28319;48.116;10.818;2023-07-08T14:48:15;31.40;62.90
41985;DHT22;28319;48.116;10.818;2023-07-08T14:53:19;31.90;62.80
41985;DHT22;28319;48.116;10.818;2023-07-08T14:58:22;31.80;61.30
41985;DHT22;28319;48.116;10.818;2023-07-08T15:03:26;31.70;62.00
41985;DHT22;28319;48.116;10.818;2023-07-08T15:08:30;31.70;61.70
41985;DHT22;28319;48.116;10.818;2023-07-08T15:13:35;31.50;62.80
41985;DHT22;28319;48.116;10.818;2023-07-08T15:18:39;31.80;62.30
41985;DHT22;28319;48.116;10.818;2023-07-08T15:23:42;31.70;62.30
41985;DHT22;28319;48.116;10.818;2023-07-08T15:28:46;31.70;62.30
41985;DHT22;28319;48.116;10.818;2023-07-08T15:33:50;31.10;61.50
41985;DHT22;28319;48.116;10.818;2023-07-08T15:38:54;31.40;61.80
41985;DHT22;28319;48.116;10.818;2023-07-08T15:43:56;31.40;63.50
41985;DHT22;28319;48.116;10.818;2023-07-08T15:48:59;31.40;63.20
41985;DHT22;28319;48.116;10.818;2023-07-08T15:54:03;31.40;63.20
41985;DHT22;28319;48.116;10.818;2023-07-08T15:59:07;31.30;62.90
41985;DHT22;28319;48.116;10.818;2023-07-08T16:04:19;31.30;63.00
41985;DHT22;28319;48.116;10.818;2023-07-08T16:09:27;31.00;62.60
41985;DHT22;28319;48.116;10.818;2023-07-08T16:14:29;31.00;63.60
41985;DHT22;28319;48.116;10.818;2023-07-08T16:19:44;31.10;62.90
41985;DHT22;28319;48.116;10.818;2023-07-08T16:25:16;30.90;63.60
41985;DHT22;28319;48.116;10.818;2023-07-08T16:30:20;30.70;62.40
41985;DHT22;28319;48.116;10.818;2023-07-08T16:35:23;30.70;62.60
41985;DHT22;28319;48.116;10.818;2023-07-08T16:40:27;30.70;62.20
41985;DHT22;28319;48.116;10.818;2023-07-08T16:45:29;30.50;62.60
41985;DHT22;28319;48.116;10.818;2023-07-08T16:50:39;30.40;63.30
41985;DHT22;28319;48.116;10.818;2023-07-08T16:55:42;30.40;63.20
41985;DHT22;28319;48.116;10.818;2023-07-08T17:00:45;30.40;63.60
41985;DHT22;28319;48.116;10.818;2023-07-08T17:05:47;30.40;63.40
41985;DHT22;28319;48.116;10.818;2023-07-08T17:10:51;30.40;65.20
41985;DHT22;28319;48.116;10.818;2023-07-08T17:15:54;30.20;64.40
41985;DHT22;28319;48.116;10.818;2023-07-08T17:20:59;30.30;64.60
41985;DHT22;28319;48.116;10.818;2023-07-08T17:26:04;30.20;63.50
41985;DHT22;28319;48.116;10.818;2023-07-08T17:31:10;30.20;65.00
41985;DHT22;28319;48.116;10.818;2023-07-08T17:36:15;30.10;64.30
41985;DHT22;28319;48.116;10.818;2023-07-08T17:41:19;30.10;66.00
41985;DHT22;28319;48.116;10.818;2023-07-08T17:46:24;30.00;65.10
41985;DHT22;28319;48.116;10.818;2023-07-08T17:51:29;30.00;66.60
41985;DHT22;28319;48.116;10.818;2023-07-08T17:56:41;29.90;67.00
41985;DHT22;28319;48.116;10.818;2023-07-08T18:01:44;29.90;67.20
41985;DHT22;28319;48.116;10.818;2023-07-08T18:06:47;29.80;66.80
41985;DHT22;28319;48.116;10.818;2023-07-08T18:11:50;29.80;67.70
41985;DHT22;28319;48.116;10.818;2023-07-08T18:16:52;29.70;67.70
41985;DHT22;28319;48.116;10.818;2023-07-08T18:21:56;29.60;67.70
41985;DHT22;28319;48.116;10.818;2023-07-08T18:27:02;29.80;67.70
41985;DHT22;28319;48.116;10.818;2023-07-08T18:32:16;29.70;67.50
41985;DHT22;28319;48.116;10.818;2023-07-08T18:37:24;29.60;67.90
41985;DHT22;28319;48.116;10.818;2023-07-08T18:42:35;29.60;67.70
41985;DHT22;28319;48.116;10.818;2023-07-08T18:54:13;29.50;69.50
41985;DHT22;28319;48.116;10.818;2023-07-08T18:59:17;29.40;68.30
41985;DHT22;28319;48.116;10.818;2023-07-08T19:04:22;29.20;69.80
41985;DHT22;28319;48.116;10.818;2023-07-08T19:09:25;28.90;70.00
41985;DHT22;28319;48.116;10.818;2023-07-08T19:14:28;28.80;70.70
41985;DHT22;28319;48.116;10.818;2023-07-08T19:19:31;28.80;71.10
41985;DHT22;28319;48.116;10.818;2023-07-08T19:24:33;28.80;71.70
41985;DHT22;28319;48.116;10.818;2023-07-08T19:29:36;28.70;72.30
41985;DHT22;28319;48.116;10.818;2023-07-08T19:34:39;28.60;72.40
41985;DHT22;28319;48.116;10.818;2023-07-08T19:39:41;28.50;73.10
41985;DHT22;28319;48.116;10.818;2023-07-08T19:44:44;28.30;73.20
41985;DHT22;28319;48.116;10.818;2023-07-08T19:49:47;28.20;73.50
41985;DHT22;28319;48.116;10.818;2023-07-08T19:54:49;28.10;73.90
41985;DHT22;28319;48.116;10.818;2023-07-08T19:59:53;27.90;74.30
41985;DHT22;28319;48.116;10.818;2023-07-08T20:04:55;27.80;75.30
41985;DHT22;28319;48.116;10.818;2023-07-08T20:09:57;27.60;75.00
41985;DHT22;28319;48.116;10.818;2023-07-08T20:15:01;27.40;76.20
41985;DHT22;28319;48.116;10.818;2023-07-08T20:20:04;27.30;75.90
41985;DHT22;28319;48.116;10.818;2023-07-08T20:25:10;27.10;76.70
41985;DHT22;28319;48.116;10.818;2023-07-08T20:30:19;26.80;77.10
41985;DHT22;28319;48.116;10.818;2023-07-08T20:35:23;26.70;76.80
41985;DHT22;28319;48.116;10.818;2023-07-08T20:40:28;26.60;77.40
41985;DHT22;28319;48.116;10.818;2023-07-08T20:45:32;26.40;77.60
41985;DHT22;28319;48.116;10.818;2023-07-08T20:50:34;26.30;78.20
41985;DHT22;28319;48.116;10.818;2023-07-08T20:55:37;26.10;77.60
41985;DHT22;28319;48.116;10.818;2023-07-08T21:00:41;25.90;79.10
41985;DHT22;28319;48.116;10.818;2023-07-08T21:05:48;25.70;78.90
41985;DHT22;28319;48.116;10.818;2023-07-08T21:10:53;25.60;79.10
41985;DHT22;28319;48.116;10.818;2023-07-08T21:15:57;25.40;79.60
41985;DHT22;28319;48.116;10.818;2023-07-08T21:20:59;25.20;80.00
41985;DHT22;28319;48.116;10.818;2023-07-08T21:26:01;25.10;80.50
41985;DHT22;28319;48.116;10.818;2023-07-08T21:31:04;24.90;80.80
41985;DHT22;28319;48.116;10.818;2023-07-08T21:36:18;24.80;81.40
41985;DHT22;28319;48.116;10.818;2023-07-08T21:41:22;24.70;81.20
41985;DHT22;28319;48.116;10.818;2023-07-08T21:46:25;24.60;81.10
41985;DHT22;28319;48.116;10.818;2023-07-08T21:51:29;24.50;82.70
41985;DHT22;28319;48.116;10.818;2023-07-08T21:56:31;24.40;82.70
41985;DHT22;28319;48.116;10.818;2023-07-08T22:01:35;24.40;82.90
41985;DHT22;28319;48.116;10.818;2023-07-08T22:06:37;24.20;83.00
41985;DHT22;28319;48.116;10.818;2023-07-08T22:11:39;24.00;83.70
41985;DHT22;28319;48.116;10.818;2023-07-08T22:16:42;23.90;83.50
41985;DHT22;28319;48.116;10.818;2023-07-08T22:21:44;23.90;84.60
41985;DHT22;28319;48.116;10.818;2023-07-08T22:26:46;23.80;84.00
41985;DHT22;28319;48.116;10.818;2023-07-08T22:31:50;23.60;84.10
41985;DHT22;28319;48.116;10.818;2023-07-08T22:36:52;23.50;84.40
41985;DHT22;28319;48.116;10.818;2023-07-08T22:41:54;23.40;85.10
41985;DHT22;28319;48.116;10.818;2023-07-08T22:46:58;23.30;84.70
41985;DHT22;28319;48.116;10.818;2023-07-08T22:52:00;23.20;85.30
41985;DHT22;28319;48.116;10.818;2023-07-08T22:57:02;23.20;85.20
41985;DHT22;28319;48.116;10.818;2023-07-08T23:02:06;23.10;85.40
41985;DHT22;28319;48.116;10.818;2023-07-08T23:07:08;23.10;85.30
41985;DHT22;28319;48.116;10.818;2023-07-08T23:12:11;22.90;86.70
41985;DHT22;28319;48.116;10.818;2023-07-08T23:17:14;22.70;87.70
41985;DHT22;28319;48.116;10.818;2023-07-08T23:22:18;22.60;88.30
41985;DHT22;28319;48.116;10.818;2023-07-08T23:27:22;22.40;88.10
41985;DHT22;28319;48.116;10.818;2023-07-08T23:32:26;22.00;89.70
41985;DHT22;28319;48.116;10.818;2023-07-08T23:37:28;22.00;89.30
41985;DHT22;28319;48.116;10.818;2023-07-08T23:42:30;22.20;88.60
41985;DHT22;28319;48.116;10.818;2023-07-08T23:47:34;22.20;89.30
41985;DHT22;28319;48.116;10.818;2023-07-08T23:52:36;22.00;89.50
41985;DHT22;28319;48.116;10.818;2023-07-08T23:57:39;22.10;88.20
